JBU294 MYNN-KFLL
Flight info
| Callsign | JBU294 |
|---|---|
| Flight time | 0h 43m |
| Altitude | 26000 |
| Route | PEACH OLAHS3 |
| Aircraft | A320/M-SDE3FGHIRWY/LB1 |
Departure
| Time | 2026-05-05 20:44 |
|---|---|
| Airport | Lynden Pindling International Airport (MYNN) |
Arrival
| Time | 2026-05-05 21:28 |
|---|---|
| Airport | Fort Lauderdale Hollywood International Airport (KFLL) |
| Time | Latitude | Longitude | Altitude | Speed | Heading |
|---|---|---|---|---|---|
| 2026-05-05 20:31 | 25.05056 | -77.46846 | 17 ft | 0 kts | 347° |
| 2026-05-05 20:37 | 25.05040 | -77.46843 | 19 ft | 4 kts | 346° |
| 2026-05-05 20:37 | 25.05023 | -77.46837 | 19 ft | 4 kts | 337° |
| 2026-05-05 20:37 | 25.05003 | -77.46818 | 19 ft | 3 kts | 248° |
| 2026-05-05 20:37 | 25.05005 | -77.46811 | 20 ft | 0 kts | 245° |
| 2026-05-05 20:41 | 25.04992 | -77.46844 | 19 ft | 8 kts | 246° |
| 2026-05-05 20:42 | 25.04968 | -77.46919 | 17 ft | 12 kts | 268° |
| 2026-05-05 20:42 | 25.05019 | -77.47009 | 17 ft | 16 kts | 311° |
| 2026-05-05 20:42 | 25.05055 | -77.47084 | 17 ft | 16 kts | 270° |
| 2026-05-05 20:42 | 25.05121 | -77.47249 | 18 ft | 21 kts | 312° |
| 2026-05-05 20:43 | 25.05192 | -77.47334 | 18 ft | 24 kts | 307° |
| 2026-05-05 20:43 | 25.05199 | -77.47492 | 21 ft | 16 kts | 246° |
| 2026-05-05 20:43 | 25.05120 | -77.47505 | 22 ft | 15 kts | 135° |
| 2026-05-05 20:43 | 25.05013 | -77.47384 | 20 ft | 47 kts | 134° |
| 2026-05-05 20:44 | 25.04580 | -77.46901 | 21 ft | 124 kts | 134° |
| 2026-05-05 20:44 | 25.03810 | -77.46089 | 168 ft | 171 kts | 139° |
| 2026-05-05 20:44 | 25.02894 | -77.45105 | 639 ft | 198 kts | 137° |
| 2026-05-05 20:44 | 25.01840 | -77.43954 | 1097 ft | 230 kts | 137° |
| 2026-05-05 20:45 | 24.99361 | -77.41061 | 2472 ft | 276 kts | 123° |
| 2026-05-05 20:45 | 24.98805 | -77.39063 | 3761 ft | 278 kts | 90° |
| 2026-05-05 20:45 | 24.99314 | -77.37023 | 4927 ft | 281 kts | 56° |
| 2026-05-05 20:46 | 25.00748 | -77.35598 | 6045 ft | 282 kts | 22° |
| 2026-05-05 20:46 | 25.02650 | -77.35249 | 7096 ft | 280 kts | 349° |
| 2026-05-05 20:46 | 25.04404 | -77.36090 | 8121 ft | 277 kts | 316° |
| 2026-05-05 20:46 | 25.05432 | -77.37836 | 9174 ft | 274 kts | 283° |
| 2026-05-05 20:47 | 25.05471 | -77.39919 | 10211 ft | 276 kts | 262° |
| 2026-05-05 20:47 | 25.05193 | -77.42095 | 10722 ft | 299 kts | 262° |
| 2026-05-05 20:47 | 25.04816 | -77.44426 | 11208 ft | 317 kts | 262° |
| 2026-05-05 20:47 | 25.04990 | -77.46865 | 11785 ft | 327 kts | 287° |
| 2026-05-05 20:48 | 25.06176 | -77.49007 | 11963 ft | 334 kts | 313° |
| 2026-05-05 20:48 | 25.08092 | -77.50476 | 12008 ft | 339 kts | 329° |
| 2026-05-05 20:48 | 25.10276 | -77.51656 | 12010 ft | 340 kts | 330° |
| 2026-05-05 20:48 | 25.12366 | -77.52771 | 12011 ft | 339 kts | 330° |
| 2026-05-05 20:49 | 25.14490 | -77.53903 | 12007 ft | 338 kts | 330° |
| 2026-05-05 20:49 | 25.16548 | -77.55150 | 12002 ft | 336 kts | 324° |
| 2026-05-05 20:49 | 25.18471 | -77.56611 | 12005 ft | 335 kts | 320° |
| 2026-05-05 20:49 | 25.20305 | -77.58183 | 12587 ft | 340 kts | 318° |
| 2026-05-05 20:50 | 25.22154 | -77.59825 | 13537 ft | 341 kts | 318° |
| 2026-05-05 20:50 | 25.24021 | -77.61472 | 14323 ft | 345 kts | 319° |
| 2026-05-05 20:50 | 25.25927 | -77.63118 | 15078 ft | 348 kts | 320° |
| 2026-05-05 20:50 | 25.27856 | -77.64752 | 15857 ft | 351 kts | 320° |
| 2026-05-05 20:51 | 25.29809 | -77.66384 | 16618 ft | 353 kts | 321° |
| 2026-05-05 20:51 | 25.31786 | -77.68022 | 17372 ft | 356 kts | 321° |
| 2026-05-05 20:51 | 25.33779 | -77.69669 | 18129 ft | 359 kts | 321° |
| 2026-05-05 20:51 | 25.35787 | -77.71329 | 18792 ft | 362 kts | 321° |
| 2026-05-05 20:52 | 25.37808 | -77.73004 | 19461 ft | 364 kts | 321° |
| 2026-05-05 20:52 | 25.39836 | -77.74699 | 20128 ft | 366 kts | 319° |
| 2026-05-05 20:52 | 25.41657 | -77.76659 | 20768 ft | 366 kts | 308° |
| 2026-05-05 20:52 | 25.43054 | -77.79012 | 21402 ft | 367 kts | 296° |
| 2026-05-05 20:53 | 25.43971 | -77.81651 | 22046 ft | 370 kts | 285° |
| 2026-05-05 20:53 | 25.44605 | -77.84415 | 22724 ft | 371 kts | 285° |
| 2026-05-05 20:53 | 25.45241 | -77.87191 | 23371 ft | 373 kts | 285° |
| 2026-05-05 20:53 | 25.45883 | -77.89977 | 23918 ft | 375 kts | 285° |
| 2026-05-05 20:54 | 25.46531 | -77.92784 | 24425 ft | 378 kts | 285° |
| 2026-05-05 20:54 | 25.47195 | -77.95649 | 24940 ft | 380 kts | 285° |
| 2026-05-05 20:54 | 25.47851 | -77.98489 | 25437 ft | 382 kts | 286° |
| 2026-05-05 20:54 | 25.48508 | -78.01350 | 25840 ft | 384 kts | 286° |
| 2026-05-05 20:55 | 25.49163 | -78.04220 | 25953 ft | 386 kts | 286° |
| 2026-05-05 20:55 | 25.49824 | -78.07114 | 25984 ft | 390 kts | 286° |
| 2026-05-05 20:55 | 25.50490 | -78.10028 | 25981 ft | 391 kts | 286° |
| 2026-05-05 20:55 | 25.51155 | -78.12944 | 25987 ft | 391 kts | 286° |
| 2026-05-05 20:56 | 25.51821 | -78.15864 | 25990 ft | 391 kts | 286° |
| 2026-05-05 20:56 | 25.52487 | -78.18782 | 25988 ft | 391 kts | 286° |
| 2026-05-05 20:56 | 25.53152 | -78.21699 | 25986 ft | 391 kts | 286° |
| 2026-05-05 20:56 | 25.53819 | -78.24621 | 25989 ft | 391 kts | 286° |
| 2026-05-05 20:57 | 25.54482 | -78.27539 | 25989 ft | 391 kts | 286° |
| 2026-05-05 20:57 | 25.55147 | -78.30462 | 25989 ft | 391 kts | 286° |
| 2026-05-05 20:57 | 25.55812 | -78.33379 | 25989 ft | 391 kts | 286° |
| 2026-05-05 20:57 | 25.56476 | -78.36299 | 25989 ft | 391 kts | 286° |
| 2026-05-05 20:58 | 25.57138 | -78.39218 | 25988 ft | 391 kts | 286° |
| 2026-05-05 20:58 | 25.57800 | -78.42141 | 25988 ft | 391 kts | 286° |
| 2026-05-05 20:58 | 25.58445 | -78.45059 | 25988 ft | 388 kts | 284° |
| 2026-05-05 20:58 | 25.58959 | -78.47980 | 25991 ft | 385 kts | 283° |
| 2026-05-05 20:59 | 25.59447 | -78.50895 | 25987 ft | 385 kts | 283° |
| 2026-05-05 20:59 | 25.59934 | -78.53804 | 25987 ft | 384 kts | 283° |
| 2026-05-05 20:59 | 25.60422 | -78.56717 | 25988 ft | 384 kts | 283° |
| 2026-05-05 20:59 | 25.60912 | -78.59629 | 25989 ft | 384 kts | 283° |
| 2026-05-05 21:00 | 25.61403 | -78.62541 | 25985 ft | 384 kts | 283° |
| 2026-05-05 21:00 | 25.61897 | -78.65451 | 25986 ft | 384 kts | 283° |
| 2026-05-05 21:00 | 25.62387 | -78.68349 | 25605 ft | 381 kts | 282° |
| 2026-05-05 21:00 | 25.62894 | -78.71254 | 25179 ft | 377 kts | 283° |
| 2026-05-05 21:01 | 25.63683 | -78.73997 | 24771 ft | 371 kts | 291° |
| 2026-05-05 21:01 | 25.64570 | -78.76648 | 24369 ft | 364 kts | 288° |
| 2026-05-05 21:01 | 25.65169 | -78.79346 | 23984 ft | 358 kts | 284° |
| 2026-05-05 21:01 | 25.65732 | -78.82013 | 23573 ft | 353 kts | 284° |
| 2026-05-05 21:02 | 25.66289 | -78.84639 | 23110 ft | 348 kts | 284° |
| 2026-05-05 21:02 | 25.66847 | -78.87251 | 22447 ft | 348 kts | 284° |
| 2026-05-05 21:02 | 25.67410 | -78.89870 | 21744 ft | 350 kts | 284° |
| 2026-05-05 21:02 | 25.67976 | -78.92499 | 21057 ft | 351 kts | 284° |
| 2026-05-05 21:03 | 25.68544 | -78.95135 | 20385 ft | 352 kts | 284° |
| 2026-05-05 21:03 | 25.69111 | -78.97777 | 19718 ft | 352 kts | 284° |
| 2026-05-05 21:03 | 25.69676 | -79.00418 | 19089 ft | 352 kts | 284° |
| 2026-05-05 21:03 | 25.70238 | -79.03059 | 18462 ft | 352 kts | 284° |
| 2026-05-05 21:04 | 25.70799 | -79.05700 | 17756 ft | 351 kts | 284° |
| 2026-05-05 21:04 | 25.71360 | -79.08340 | 17047 ft | 350 kts | 284° |
| 2026-05-05 21:04 | 25.71916 | -79.10968 | 16346 ft | 349 kts | 284° |
| 2026-05-05 21:04 | 25.72462 | -79.13556 | 15671 ft | 338 kts | 283° |
| 2026-05-05 21:05 | 25.72986 | -79.16033 | 15010 ft | 323 kts | 283° |
| 2026-05-05 21:05 | 25.73493 | -79.18427 | 14359 ft | 315 kts | 283° |
| 2026-05-05 21:05 | 25.73992 | -79.20781 | 13706 ft | 312 kts | 283° |
| 2026-05-05 21:05 | 25.74484 | -79.23111 | 12998 ft | 309 kts | 283° |
| 2026-05-05 21:06 | 25.74971 | -79.25421 | 12299 ft | 309 kts | 282° |
| 2026-05-05 21:06 | 25.75463 | -79.27759 | 11613 ft | 313 kts | 282° |
| 2026-05-05 21:06 | 25.75988 | -79.30120 | 10945 ft | 317 kts | 284° |
| 2026-05-05 21:06 | 25.76589 | -79.32486 | 10292 ft | 320 kts | 285° |
| 2026-05-05 21:07 | 25.77232 | -79.34858 | 9616 ft | 322 kts | 286° |
| 2026-05-05 21:07 | 25.77887 | -79.37232 | 9118 ft | 318 kts | 286° |
| 2026-05-05 21:07 | 25.78518 | -79.39526 | 8984 ft | 303 kts | 286° |
| 2026-05-05 21:07 | 25.79116 | -79.41726 | 8960 ft | 286 kts | 285° |
| 2026-05-05 21:08 | 25.79672 | -79.43797 | 8833 ft | 276 kts | 285° |
| 2026-05-05 21:08 | 25.80213 | -79.45836 | 8712 ft | 274 kts | 285° |
| 2026-05-05 21:08 | 25.80746 | -79.47866 | 8578 ft | 274 kts | 285° |
| 2026-05-05 21:08 | 25.81278 | -79.49893 | 8464 ft | 273 kts | 285° |
| 2026-05-05 21:09 | 25.81808 | -79.51915 | 8327 ft | 273 kts | 285° |
| 2026-05-05 21:09 | 25.82343 | -79.53957 | 8152 ft | 273 kts | 285° |
| 2026-05-05 21:09 | 25.82876 | -79.55982 | 7775 ft | 273 kts | 286° |
| 2026-05-05 21:09 | 25.83409 | -79.58007 | 7369 ft | 274 kts | 286° |
| 2026-05-05 21:10 | 25.83955 | -79.60024 | 6952 ft | 274 kts | 289° |
| 2026-05-05 21:10 | 25.84683 | -79.61978 | 6604 ft | 273 kts | 292° |
| 2026-05-05 21:10 | 25.85414 | -79.63905 | 6187 ft | 274 kts | 292° |
| 2026-05-05 21:10 | 25.86177 | -79.65844 | 5995 ft | 267 kts | 294° |
| 2026-05-05 21:11 | 25.86966 | -79.67706 | 5991 ft | 267 kts | 295° |
| 2026-05-05 21:11 | 25.87776 | -79.69567 | 5994 ft | 268 kts | 295° |
| 2026-05-05 21:11 | 25.88590 | -79.71427 | 5994 ft | 268 kts | 295° |
| 2026-05-05 21:11 | 25.89404 | -79.73289 | 6002 ft | 268 kts | 295° |
| 2026-05-05 21:12 | 25.90206 | -79.75140 | 6000 ft | 268 kts | 295° |
| 2026-05-05 21:12 | 25.91014 | -79.77018 | 5999 ft | 269 kts | 295° |
| 2026-05-05 21:12 | 25.91556 | -79.78285 | 5999 ft | 269 kts | 295° |
| 2026-05-05 21:12 | 25.92350 | -79.80146 | 5998 ft | 266 kts | 295° |
| 2026-05-05 21:13 | 25.93149 | -79.82028 | 6002 ft | 265 kts | 295° |
| 2026-05-05 21:13 | 25.93938 | -79.83883 | 6000 ft | 267 kts | 295° |
| 2026-05-05 21:13 | 25.94732 | -79.85746 | 5998 ft | 267 kts | 295° |
| 2026-05-05 21:13 | 25.95527 | -79.87612 | 5998 ft | 266 kts | 295° |
| 2026-05-05 21:14 | 25.96319 | -79.89472 | 5994 ft | 266 kts | 295° |
| 2026-05-05 21:14 | 25.97109 | -79.91332 | 5995 ft | 266 kts | 295° |
| 2026-05-05 21:14 | 25.97897 | -79.93186 | 5994 ft | 265 kts | 295° |
| 2026-05-05 21:14 | 25.98728 | -79.95006 | 5992 ft | 264 kts | 301° |
| 2026-05-05 21:15 | 25.99868 | -79.96607 | 5992 ft | 266 kts | 311° |
| 2026-05-05 21:15 | 26.01114 | -79.98130 | 5991 ft | 267 kts | 311° |
| 2026-05-05 21:15 | 26.02363 | -79.99664 | 5985 ft | 268 kts | 311° |
| 2026-05-05 21:15 | 26.03611 | -80.01204 | 5985 ft | 268 kts | 311° |
| 2026-05-05 21:16 | 26.04855 | -80.02743 | 5975 ft | 267 kts | 311° |
| 2026-05-05 21:16 | 26.06097 | -80.04278 | 5762 ft | 266 kts | 311° |
| 2026-05-05 21:16 | 26.07329 | -80.05801 | 5559 ft | 264 kts | 310° |
| 2026-05-05 21:16 | 26.08574 | -80.07341 | 5362 ft | 264 kts | 310° |
| 2026-05-05 21:17 | 26.09799 | -80.08861 | 5165 ft | 262 kts | 311° |
| 2026-05-05 21:17 | 26.11003 | -80.10355 | 5036 ft | 252 kts | 310° |
| 2026-05-05 21:17 | 26.12148 | -80.11769 | 5012 ft | 239 kts | 310° |
| 2026-05-05 21:17 | 26.13248 | -80.13132 | 5008 ft | 237 kts | 309° |
| 2026-05-05 21:18 | 26.14218 | -80.14628 | 5016 ft | 236 kts | 296° |
| 2026-05-05 21:18 | 26.14821 | -80.16333 | 4960 ft | 237 kts | 284° |
| 2026-05-05 21:18 | 26.15043 | -80.18139 | 4930 ft | 236 kts | 271° |
| 2026-05-05 21:18 | 26.15038 | -80.19950 | 4778 ft | 231 kts | 270° |
| 2026-05-05 21:19 | 26.15041 | -80.21704 | 4641 ft | 221 kts | 271° |
| 2026-05-05 21:19 | 26.15049 | -80.23381 | 4476 ft | 216 kts | 271° |
| 2026-05-05 21:19 | 26.15058 | -80.25103 | 4131 ft | 229 kts | 270° |
| 2026-05-05 21:19 | 26.15066 | -80.26919 | 3771 ft | 238 kts | 271° |
| 2026-05-05 21:20 | 26.15087 | -80.28766 | 3427 ft | 238 kts | 271° |
| 2026-05-05 21:20 | 26.15099 | -80.30605 | 3095 ft | 237 kts | 270° |
| 2026-05-05 21:20 | 26.15094 | -80.32395 | 3002 ft | 224 kts | 270° |
| 2026-05-05 21:20 | 26.15078 | -80.34103 | 3005 ft | 217 kts | 270° |
| 2026-05-05 21:21 | 26.15056 | -80.35771 | 3008 ft | 216 kts | 270° |
| 2026-05-05 21:21 | 26.15029 | -80.37437 | 3010 ft | 215 kts | 269° |
| 2026-05-05 21:21 | 26.14752 | -80.39059 | 3013 ft | 215 kts | 245° |
| 2026-05-05 21:21 | 26.13823 | -80.40335 | 3028 ft | 215 kts | 216° |
| 2026-05-05 21:22 | 26.12438 | -80.40963 | 3014 ft | 215 kts | 190° |
| 2026-05-05 21:22 | 26.11000 | -80.40957 | 3009 ft | 201 kts | 168° |
| 2026-05-05 21:22 | 26.09719 | -80.40421 | 3021 ft | 195 kts | 147° |
| 2026-05-05 21:22 | 26.08706 | -80.39473 | 3014 ft | 188 kts | 129° |
| 2026-05-05 21:23 | 26.08038 | -80.38208 | 3000 ft | 188 kts | 110° |
| 2026-05-05 21:23 | 26.07789 | -80.36780 | 3000 ft | 190 kts | 91° |
| 2026-05-05 21:23 | 26.07783 | -80.35308 | 3004 ft | 190 kts | 90° |
| 2026-05-05 21:23 | 26.07777 | -80.33879 | 2904 ft | 176 kts | 89° |
| 2026-05-05 21:24 | 26.07772 | -80.32560 | 2725 ft | 167 kts | 89° |
| 2026-05-05 21:24 | 26.07766 | -80.31281 | 2528 ft | 160 kts | 89° |
| 2026-05-05 21:24 | 26.07761 | -80.30058 | 2324 ft | 155 kts | 90° |
| 2026-05-05 21:24 | 26.07755 | -80.28894 | 2134 ft | 147 kts | 88° |
| 2026-05-05 21:25 | 26.07750 | -80.27766 | 1945 ft | 144 kts | 88° |
| 2026-05-05 21:25 | 26.07745 | -80.26650 | 1780 ft | 144 kts | 90° |
| 2026-05-05 21:25 | 26.07740 | -80.25552 | 1579 ft | 141 kts | 88° |
| 2026-05-05 21:25 | 26.07734 | -80.24415 | 1376 ft | 144 kts | 89° |
| 2026-05-05 21:26 | 26.07729 | -80.23305 | 1199 ft | 143 kts | 89° |
| 2026-05-05 21:26 | 26.07724 | -80.22212 | 1006 ft | 140 kts | 89° |
| 2026-05-05 21:26 | 26.07718 | -80.21135 | 827 ft | 136 kts | 89° |
| 2026-05-05 21:26 | 26.07712 | -80.20065 | 667 ft | 140 kts | 89° |
| 2026-05-05 21:27 | 26.07729 | -80.18970 | 424 ft | 136 kts | 89° |
| 2026-05-05 21:27 | 26.07716 | -80.17922 | 272 ft | 133 kts | 89° |
| 2026-05-05 21:27 | 26.07706 | -80.16882 | 176 ft | 135 kts | 88° |
| 2026-05-05 21:27 | 26.07699 | -80.15902 | 19 ft | 101 kts | 91° |
| 2026-05-05 21:28 | 26.07698 | -80.15266 | 16 ft | 66 kts | 92° |
| 2026-05-05 21:28 | 26.07689 | -80.14843 | 19 ft | 39 kts | 91° |
| 2026-05-05 21:28 | 26.07623 | -80.14580 | 20 ft | 32 kts | 120° |
| 2026-05-05 21:28 | 26.07537 | -80.14522 | 17 ft | 13 kts | 171° |
| 2026-05-05 21:29 | 26.07457 | -80.14546 | 16 ft | 6 kts | 218° |
| 2026-05-05 21:29 | 26.07449 | -80.14548 | 17 ft | 1 kts | 193° |
| 2026-05-05 21:29 | 26.07429 | -80.14537 | 16 ft | 5 kts | 144° |
| 2026-05-05 21:29 | 26.07411 | -80.14487 | 16 ft | 7 kts | 92° |
| 2026-05-05 21:30 | 26.07398 | -80.14443 | 18 ft | 4 kts | 135° |
| 2026-05-05 21:30 | 26.07381 | -80.14425 | 16 ft | 1 kts | 137° |
| 2026-05-05 21:30 | 26.07379 | -80.14424 | 16 ft | 0 kts | 137° |
| 2026-05-05 21:30 | 26.07377 | -80.14422 | 16 ft | 0 kts | 138° |